Plympton, MA (02367)

12:57 PM EDT on August 30, 2016 (GMT -0400)
Turkey Swamp Yacht Club | | Change Station

Elev 50 ft 41.99 °N, 70.83 °W | Updated 13 seconds ago

Mostly Cloudy
Mostly Cloudy
81.4 °F
Feels Like 82 °F
N
2.3
Wind Variable Wind from WNW
Gusts 2.3 mph

Today
High -- | Low -- °F
--% Chance of Precip.
Yesterday
High -- | Low -- °F
Precip. -- in
Pressure 30.13 in
Visibility 10.0 miles
Clouds Mostly Cloudy 5000 ft
Heat Index 82 °F
Dew Point 59 °F
Humidity 46%
Rainfall 0.00 in
Snow Depth Not available.
6:07 AM 7:19 PM
Waning Crescent, 3% visible
METAR KPYM 301652Z AUTO VRB05KT 10SM BKN050 27/12 A3013 RMK AO2 SLP202 T02670117
Pressure 30.13 in
Visibility 10.0 miles
Clouds Mostly Cloudy 5000 ft
Heat Index 82 °F
Dew Point 59 °F
Humidity 46%
Rainfall 0.00 in
Snow Depth Not available.
6:07 AM 7:19 PM
Waning Crescent, 3% visible
METAR KPYM 301652Z AUTO VRB05KT 10SM BKN050 27/12 A3013 RMK AO2 SLP202 T02670117

10-Day Weather Forecast

Almanac

Astronomy

Aug. 30, 2016 Rise Set
Actual Time
Civil Twilight
Nautical Twilight
Astronomical Twilight
Moon
Length of Visible Light
Length of Day
Tomorrow will be .
, % of the Moon is Illuminated

Today's Extremes

State Highs State Lows

Community

WunderPhotos

Upload Photos

1,935,845 photos uploaded!

WunderBlog® & News

Nearby

Air Quality

  Air Quality AQ Index Pollutant
Not available.

Snow Depth

Station Depth Elevation

Earthquake Activity

City Distance Mag. Time & Date
Minimum magnitude displayed is 2.5.

Coastal Water Temperatures

Place Temperature

Stations

Nearby Weather Stations

Station Location Temp. Windchill Dew Point Humidity Wind Precip. Elev Updated Type
                   

Watches & Warnings

There are currently no watches in effect.